Aberdeen, North Carolina
Current Conditions -  °F | °C
As of 12:15 PM on Saturday 20 Dec 2014 (Local Time) from KSOP Reporting Station
Overcast Overcast  
Wind Chill:   Ceiling: 800
Heat Index:   Visibility: 9mi
Dew Point:   Wind: 6mph
Humidity: 93%   Direction: 50°NE
Pressure: 30.27"   Gusts: NA
Location:  35.13°N, 79.43°W
Report Text: KSOP 201715Z AUTO 05005KT 9SM BKN008 OVC048 03/02 A3027 RMK AO1
Loading
Personal Weather Stations






























Interactive Weather Map New forecast layout! Learn more

10-Day Weather Forecast

Advertisements
Track Severe Weather on mobile